| time (UTC) | temp C | wind direction | speed KPH | gust KPH | rain 1hr cm | rain 24hr cm | rain mn cm | humidity % | barometer mb |
| 20260906071604 | 21 | 0 | 0.0 | 1.6 | 0.00 | 0.81 | 0.00 | 95 | 1011.9 |
| 20260906070104 | 21 | 0 | 0.0 | 0.0 | 0.00 | 0.81 | 0.00 | 95 | 1012.1 |
| 20260906064601 | 21 | 0 | 0.0 | 0.0 | 0.00 | 0.81 | 0.00 | 95 | 1012.5 |
| 20260906063101 | 21 | 150 | 0.0 | 3.2 | 0.00 | 0.81 | 0.00 | 95 | 1012.7 |
| 20260906061610 | 21 | 0 | 0.0 | 0.0 | 0.00 | 0.81 | 0.00 | 94 | 1012.9 |
| 20260906054605 | 21 | 150 | 1.6 | 3.2 | 0.00 | 0.81 | 0.00 | 93 | 1013.0 |
| 20260906053101 | 21 | 150 | 1.6 | 3.2 | 0.00 | 0.81 | 0.00 | 93 | 1013.0 |
| 20260906051606 | 21 | 150 | 1.6 | 3.2 | 0.00 | 0.81 | 0.00 | 93 | 1013.1 |
| 20260906050110 | 21 | 150 | 0.0 | 0.0 | 0.00 | 0.81 | 0.00 | 95 | 1013.2 |
| 20260906044602 | 22 | 0 | 0.0 | 1.6 | 0.00 | 0.81 | 0.00 | 94 | 1013.4 |
| 20260906043059 | 22 | 150 | 1.6 | 1.6 | 0.00 | 0.81 | 0.00 | 95 | 1013.4 |
| 20260906041601 | 22 | 0 | 0.0 | 0.0 | 0.00 | 0.81 | 0.00 | 95 | 1013.5 |
| 20260906040105 | 22 | 0 | 0.0 | 0.0 | 0.00 | 0.81 | 0.00 | 94 | 1013.7 |
| 20260906034606 | 22 | 0 | 0.0 | 0.0 | 0.00 | 0.81 | 0.81 | 93 | 1013.7 |
| 20260906033101 | 22 | 0 | 0.0 | 1.6 | 0.00 | 0.81 | 0.81 | 93 | 1013.7 |
| 20260906031607 | 22 | 150 | 0.0 | 1.6 | 0.00 | 0.81 | 0.81 | 93 | 1013.8 |
| 20260906030105 | 22 | 150 | 0.0 | 3.2 | 0.00 | 0.81 | 0.81 | 94 | 1013.6 |
| 20260906024602 | 22 | 150 | 1.6 | 1.6 | 0.00 | 0.81 | 0.81 | 94 | 1013.5 |
| 20260906023102 | 22 | 0 | 0.0 | 0.0 | 0.00 | 0.81 | 0.81 | 94 | 1013.4 |
| 20260906021607 | 22 | 0 | 0.0 | 0.0 | 0.00 | 0.81 | 0.81 | 93 | 1013.2 |
| 20260906020108 | 23 | 0 | 0.0 | 0.0 | 0.00 | 0.81 | 0.81 | 92 | 1013.2 |
| 20260906014607 | 23 | 0 | 0.0 | 0.0 | 0.00 | 0.81 | 0.81 | 91 | 1013.3 |
| 20260906013104 | 23 | 0 | 0.0 | 1.6 | 0.00 | 0.81 | 0.81 | 91 | 1013.3 |
| 20260906011603 | 23 | 0 | 0.0 | 0.0 | 0.00 | 0.81 | 0.81 | 89 | 1012.9 |
| 20260906010101 | 23 | 0 | 0.0 | 0.0 | 0.00 | 0.81 | 0.81 | 90 | 1013.0 |
| 20260906004605 | 24 | 0 | 0.0 | 0.0 | 0.00 | 0.81 | 0.81 | 89 | 1013.0 |
| 20260906003105 | 25 | 0 | 0.0 | 0.0 | 0.00 | 0.81 | 0.81 | 88 | 1012.7 |
| 20260906001605 | 25 | 150 | 0.0 | 3.2 | 0.00 | 0.81 | 0.81 | 87 | 1012.3 |
| 20260905234601 | 26 | 0 | 0.0 | 0.0 | 0.00 | 0.81 | 0.81 | 80 | 1012.0 |
| 20260905233120 | 28 | 0 | 0.0 | 0.0 | 0.00 | 0.81 | 0.81 | 74 | 1012.0 |
| 20260905231604 | 28 | 0 | 0.0 | 1.6 | 0.00 | 0.81 | 0.81 | 72 | 1011.9 |
| 20260905230108 | 29 | 150 | 0.0 | 3.2 | 0.00 | 0.81 | 0.81 | 70 | 1011.9 |
| 20260905224608 | 29 | 0 | 0.0 | 0.0 | 0.00 | 0.81 | 0.81 | 69 | 1011.9 |
| 20260905223103 | 29 | 0 | 0.0 | 3.2 | 0.00 | 0.81 | 0.81 | 70 | 1012.0 |
| 20260905221608 | 29 | 150 | 1.6 | 6.4 | 0.00 | 0.81 | 0.81 | 69 | 1011.9 |
| 20260905220110 | 28 | 150 | 1.6 | 8.0 | 0.00 | 0.81 | 0.81 | 71 | 1011.8 |
| 20260905214602 | 28 | 150 | 3.2 | 11.3 | 0.00 | 0.81 | 0.81 | 73 | 1012.1 |
| 20260905213105 | 27 | 150 | 4.8 | 9.7 | 0.00 | 0.81 | 0.81 | 74 | 1012.6 |
| 20260905211630 | 27 | 150 | 4.8 | 9.7 | 0.00 | 0.81 | 0.81 | 77 | 1012.4 |
| 20260905210118 | 26 | 150 | 3.2 | 9.7 | 0.00 | 0.81 | 0.81 | 83 | 1012.5 |
| 20260905204608 | 26 | 0 | 0.0 | 8.0 | 0.00 | 0.81 | 0.81 | 84 | 1012.4 |
| 20260905203119 | 26 | 0 | 0.0 | 9.7 | 0.00 | 0.81 | 0.81 | 85 | 1012.5 |
| 20260905201602 | 26 | 150 | 0.0 | 8.0 | 0.00 | 0.81 | 0.81 | 87 | 1012.5 |
| 20260905200104 | 26 | 150 | 0.0 | 4.8 | 0.00 | 0.81 | 0.81 | 87 | 1012.8 |
| 20260905194606 | 26 | 0 | 0.0 | 3.2 | 0.00 | 0.81 | 0.81 | 87 | 1013.0 |
| 20260905193105 | 25 | 150 | 4.8 | 6.4 | 0.00 | 0.81 | 0.81 | 86 | 1012.9 |
| 20260905191605 | 25 | 150 | 0.0 | 1.6 | 0.00 | 0.81 | 0.81 | 85 | 1012.9 |
| 20260905184603 | 23 | 150 | 1.6 | 4.8 | 0.25 | 0.81 | 0.81 | 93 | 1012.3 |
| 20260905183104 | 22 | 150 | 1.6 | 6.4 | 0.81 | 0.81 | 0.81 | 93 | 1012.2 |
| 20260905181611 | 22 | 150 | 1.6 | 3.2 | 0.81 | 0.81 | 0.81 | 93 | 1013.2 |
| 20260905180109 | 22 | 150 | 6.4 | 14.5 | 0.81 | 0.81 | 0.81 | 88 | 1013.3 |
| 20260905174606 | 23 | 150 | 4.8 | 25.7 | 0.53 | 0.53 | 0.53 | 83 | 1015.3 |
| 20260905173102 | 32 | 150 | 4.8 | 11.3 | 0.00 | 0.00 | 0.00 | 57 | 1014.1 |
| 20260905171601 | 33 | 150 | 4.8 | 14.5 | 0.00 | 0.00 | 0.00 | 56 | 1013.6 |
| 20260905170106 | 33 | 150 | 6.4 | 14.5 | 0.00 | 0.00 | 0.00 | 53 | 1014.1 |
| 20260905164603 | 33 | 150 | 4.8 | 12.9 | 0.00 | 0.00 | 0.00 | 52 | 1014.1 |
| 20260905163108 | 33 | 150 | 6.4 | 9.7 | 0.00 | 0.00 | 0.00 | 52 | 1014.3 |
| 20260905161559 | 33 | 150 | 6.4 | 14.5 | 0.00 | 0.00 | 0.00 | 54 | 1014.3 |
| 20260905160137 | 33 | 150 | 8.0 | 14.5 | 0.00 | 0.00 | 0.00 | 58 | 1014.6 |
| 20260905154605 | 32 | 150 | 8.0 | 14.5 | 0.00 | 0.00 | 0.00 | 59 | 1014.6 |
| 20260905153103 | 32 | 150 | 3.2 | 8.0 | 0.00 | 0.00 | 0.00 | 60 | 1014.5 |
| 20260905151609 | 32 | 150 | 1.6 | 8.0 | 0.00 | 0.00 | 0.00 | 61 | 1014.5 |
| 20260905150103 | 31 | 150 | 3.2 | 8.0 | 0.00 | 0.00 | 0.00 | 62 | 1014.5 |
| 20260905144602 | 31 | 150 | 3.2 | 8.0 | 0.00 | 0.00 | 0.00 | 66 | 1014.7 |
| 20260905143104 | 30 | 150 | 3.2 | 6.4 | 0.00 | 0.00 | 0.00 | 67 | 1014.6 |
| 20260905141603 | 30 | 150 | 3.2 | 6.4 | 0.00 | 0.00 | 0.00 | 69 | 1014.6 |
| 20260905140106 | 29 | 150 | 0.0 | 8.0 | 0.00 | 0.00 | 0.00 | 70 | 1014.5 |
| 20260905134606 | 28 | 150 | 3.2 | 6.4 | 0.00 | 0.00 | 0.00 | 71 | 1014.7 |
| 20260905133101 | 28 | 150 | 1.6 | 6.4 | 0.00 | 0.00 | 0.00 | 74 | 1014.7 |
| 20260905131606 | 27 | 150 | 0.0 | 4.8 | 0.00 | 0.00 | 0.00 | 78 | 1014.8 |
| 20260905130101 | 26 | 150 | 0.0 | 3.2 | 0.00 | 0.00 | 0.00 | 79 | 1015.0 |
| 20260905124602 | 25 | 150 | 0.0 | 6.4 | 0.00 | 0.00 | 0.00 | 82 | 1015.0 |
| 20260905123103 | 25 | 0 | 0.0 | 0.0 | 0.00 | 0.00 | 0.00 | 85 | 1015.0 |
| 20260905121603 | 24 | 0 | 0.0 | 0.0 | 0.00 | 0.00 | 0.00 | 86 | 1014.9 |
| 20260905120119 | 23 | 0 | 0.0 | 0.0 | 0.00 | 0.00 | 0.00 | 90 | 1014.6 |
| 20260905114600 | 22 | 150 | 0.0 | 0.0 | 0.00 | 0.00 | 0.00 | 92 | 1014.5 |
| 20260905113104 | 21 | 0 | 0.0 | 0.0 | 0.00 | 0.00 | 0.00 | 94 | 1014.5 |
| 20260905111614 | 21 | 0 | 0.0 | 0.0 | 0.00 | 0.00 | 0.00 | 95 | 1014.3 |
| 20260905110106 | 21 | 0 | 0.0 | 0.0 | 0.00 | 0.00 | 0.00 | 95 | 1014.0 |
| 20260905104603 | 21 | 0 | 0.0 | 0.0 | 0.00 | 0.00 | 0.00 | 94 | 1013.9 |
| 20260905103102 | 21 | 0 | 0.0 | 0.0 | 0.00 | 0.00 | 0.00 | 94 | 1014.0 |
| 20260905101603 | 21 | 0 | 0.0 | 0.0 | 0.00 | 0.00 | 0.00 | 93 | 1013.8 |
| 20260905094602 | 21 | 0 | 0.0 | 1.6 | 0.00 | 0.00 | 0.00 | 94 | 1013.7 |
| 20260905093101 | 21 | 0 | 0.0 | 0.0 | 0.00 | 0.00 | 0.00 | 94 | 1013.6 |
| 20260905091624 | 21 | 150 | 0.0 | 1.6 | 0.00 | 0.00 | 0.00 | 94 | 1013.6 |
| 20260905090120 | 21 | 150 | 1.6 | 1.6 | 0.00 | 0.00 | 0.00 | 94 | 1013.7 |
| 20260905084610 | 21 | 150 | 0.0 | 0.0 | 0.00 | 0.00 | 0.00 | 94 | 1013.8 |
| 20260905083100 | 21 | 0 | 0.0 | 3.2 | 0.00 | 0.00 | 0.00 | 95 | 1014.1 |
| 20260905081603 | 21 | 150 | 1.6 | 3.2 | 0.00 | 0.00 | 0.00 | 94 | 1014.1 |
| 20260905080105 | 22 | 0 | 0.0 | 0.0 | 0.00 | 0.00 | 0.00 | 94 | 1014.4 |
| 20260905074603 | 22 | 0 | 0.0 | 0.0 | 0.00 | 0.00 | 0.00 | 93 | 1014.5 |
| 20260905073104 | 22 | 0 | 0.0 | 0.0 | 0.00 | 0.00 | 0.00 | 93 | 1014.4 |